createdAt,value
2022-08-22T00:00:13.635Z,17.79
2022-08-22T00:02:45.363Z,21.45
2022-08-22T00:03:11.563Z,17.78
2022-08-22T00:05:29.230Z,17.75
2022-08-22T00:07:57.055Z,17.74
2022-08-22T00:10:26.302Z,17.71
2022-08-22T00:12:54.376Z,17.67
2022-08-22T00:15:43.393Z,17.63
2022-08-22T00:18:09.834Z,17.60
2022-08-22T00:20:37.906Z,17.56
2022-08-22T00:23:05.499Z,17.51
2022-08-22T00:25:33.148Z,17.43
2022-08-22T00:28:00.937Z,17.37
2022-08-22T00:30:30.436Z,17.31
2022-08-22T00:32:58.060Z,17.24
2022-08-22T00:35:25.864Z,17.18
2022-08-22T00:37:53.438Z,17.10
2022-08-22T00:40:21.751Z,17.00
2022-08-22T00:42:49.506Z,16.92
2022-08-22T00:45:17.124Z,16.87
2022-08-22T00:47:44.825Z,16.83
2022-08-22T00:50:12.931Z,16.78
2022-08-22T00:52:40.664Z,16.73
2022-08-22T00:55:08.290Z,16.70
2022-08-22T00:57:35.925Z,16.66
2022-08-22T01:00:05.816Z,16.63
2022-08-22T01:02:33.430Z,16.60
2022-08-22T01:05:01.122Z,16.56
2022-08-22T01:07:30.479Z,16.50
2022-08-22T01:10:08.457Z,16.45
2022-08-22T01:12:36.120Z,16.40
2022-08-22T01:15:03.775Z,16.38
2022-08-22T01:17:32.091Z,16.32
2022-08-22T01:20:00.137Z,16.31
2022-08-22T01:22:27.729Z,16.32
2022-08-22T01:25:13.062Z,16.31
2022-08-22T01:27:41.627Z,16.28
2022-08-22T01:30:09.467Z,16.23
2022-08-22T01:32:38.288Z,16.17
2022-08-22T01:35:06.131Z,16.12
2022-08-22T01:37:33.866Z,16.08
2022-08-22T01:40:12.719Z,16.04
2022-08-22T01:42:40.483Z,16.05
2022-08-22T01:45:08.203Z,16.06
2022-08-22T01:47:37.358Z,16.07
2022-08-22T01:50:05.621Z,16.08
2022-08-22T01:52:33.261Z,16.07
2022-08-22T01:55:01.009Z,16.02
2022-08-22T01:57:29.097Z,15.97
2022-08-22T01:59:57.241Z,15.90
2022-08-22T02:02:25.015Z,15.83
2022-08-22T02:04:52.655Z,15.78
2022-08-22T02:07:20.283Z,15.74
2022-08-22T02:09:52.299Z,15.71
2022-08-22T02:12:21.589Z,15.69
2022-08-22T02:14:49.779Z,15.66
2022-08-22T02:17:17.536Z,15.67
2022-08-22T02:19:45.123Z,15.67
2022-08-22T02:22:12.843Z,15.69
2022-08-22T02:24:41.028Z,15.70
2022-08-22T02:27:08.789Z,15.71
2022-08-22T02:29:36.374Z,15.73
2022-08-22T02:32:04.242Z,15.79
2022-08-22T02:34:32.418Z,15.83
2022-08-22T02:37:00.081Z,15.82
2022-08-22T02:39:28.211Z,15.78
2022-08-22T02:41:55.771Z,15.73
2022-08-22T02:44:23.775Z,15.68
2022-08-22T02:46:51.365Z,15.65
2022-08-22T02:49:19.466Z,15.63
2022-08-22T02:51:47.236Z,15.63
2022-08-22T02:54:17.173Z,15.61
2022-08-22T02:56:44.868Z,15.59
2022-08-22T02:59:14.026Z,15.59
2022-08-22T03:01:41.779Z,15.59
2022-08-22T03:04:09.515Z,15.57
2022-08-22T03:06:37.211Z,15.55
2022-08-22T03:09:06.302Z,15.53
2022-08-22T03:11:34.087Z,15.49
2022-08-22T03:14:01.806Z,15.47
2022-08-22T03:16:29.464Z,15.45
2022-08-22T03:18:57.638Z,15.42
2022-08-22T03:21:25.263Z,15.40
2022-08-22T03:23:52.933Z,15.38
2022-08-22T03:26:20.598Z,15.37
2022-08-22T03:28:59.493Z,15.34
2022-08-22T03:31:27.994Z,15.27
2022-08-22T03:33:55.655Z,15.21
2022-08-22T03:36:23.316Z,15.14
2022-08-22T03:38:51.399Z,15.09
2022-08-22T03:41:20.209Z,15.03
2022-08-22T03:43:47.882Z,14.99
2022-08-22T03:46:17.465Z,14.94
2022-08-22T03:48:46.744Z,14.90
2022-08-22T03:51:14.374Z,14.88
2022-08-22T03:53:42.028Z,14.86
2022-08-22T03:56:09.619Z,14.84
2022-08-22T03:58:37.809Z,14.82
2022-08-22T04:01:05.523Z,14.82
2022-08-22T04:03:33.301Z,14.80
2022-08-22T04:06:01.006Z,14.81
2022-08-22T04:08:29.208Z,14.80
2022-08-22T04:10:57.728Z,14.79
2022-08-22T04:13:30.203Z,14.79
2022-08-22T04:15:57.788Z,14.77
2022-08-22T04:18:25.629Z,14.76
2022-08-22T04:20:53.746Z,14.74
2022-08-22T04:23:21.351Z,14.73
2022-08-22T04:25:49.088Z,14.72
2022-08-22T04:28:16.840Z,14.70
2022-08-22T04:30:45.026Z,14.69
2022-08-22T04:33:12.711Z,14.68
2022-08-22T04:35:40.377Z,14.65
2022-08-22T04:38:09.215Z,14.64
2022-08-22T04:40:37.504Z,14.62
2022-08-22T04:43:06.349Z,14.60
2022-08-22T04:45:34.022Z,14.60
2022-08-22T04:48:01.737Z,14.59
2022-08-22T04:50:29.751Z,14.59
2022-08-22T04:52:57.700Z,14.61
2022-08-22T04:55:25.454Z,14.65
2022-08-22T04:57:53.178Z,14.69
2022-08-22T05:00:21.242Z,14.74
2022-08-22T05:02:50.806Z,14.78
2022-08-22T05:05:18.515Z,14.79
2022-08-22T05:07:46.174Z,14.79
2022-08-22T05:10:14.280Z,14.84
2022-08-22T05:12:42.048Z,14.90
2022-08-22T05:15:10.252Z,14.93
2022-08-22T05:17:38.298Z,14.96
2022-08-22T05:20:06.765Z,15.02
2022-08-22T05:22:34.580Z,15.07
2022-08-22T05:25:02.383Z,15.13
2022-08-22T05:27:30.392Z,15.21
2022-08-22T05:29:58.110Z,15.31
2022-08-22T05:32:25.744Z,15.43
2022-08-22T05:34:53.476Z,15.56
2022-08-22T05:37:21.158Z,15.74
2022-08-22T05:39:49.737Z,15.98
2022-08-22T05:42:17.412Z,16.18
2022-08-22T05:44:45.077Z,16.39
2022-08-22T05:47:12.741Z,16.58
2022-08-22T05:49:41.097Z,16.72
2022-08-22T05:52:08.782Z,16.85
2022-08-22T05:54:36.650Z,16.93
2022-08-22T05:57:07.799Z,17.01
2022-08-22T05:59:36.024Z,17.08
2022-08-22T06:02:03.807Z,17.14
2022-08-22T06:04:31.569Z,17.17
2022-08-22T06:06:59.214Z,17.20
2022-08-22T06:09:27.207Z,17.21
2022-08-22T06:12:03.086Z,17.26
2022-08-22T06:14:30.854Z,17.38
2022-08-22T06:17:01.454Z,17.48
2022-08-22T06:19:29.104Z,17.61
2022-08-22T06:21:57.656Z,17.77
2022-08-22T06:24:26.573Z,17.89
2022-08-22T06:26:54.495Z,17.97
2022-08-22T06:29:22.169Z,18.03
2022-08-22T06:31:49.884Z,18.14
2022-08-22T06:34:17.607Z,18.27
2022-08-22T06:36:45.279Z,18.42
2022-08-22T06:39:13.265Z,18.52
2022-08-22T06:41:41.109Z,18.63
2022-08-22T06:44:08.802Z,18.76
2022-08-22T06:46:36.528Z,18.91
2022-08-22T06:49:04.658Z,19.09
2022-08-22T06:51:32.317Z,19.28
2022-08-22T06:53:59.982Z,19.46
2022-08-22T06:56:29.711Z,19.62
2022-08-22T06:58:57.690Z,19.74
2022-08-22T07:01:25.478Z,19.87
2022-08-22T07:03:53.375Z,19.96
2022-08-22T07:06:21.134Z,20.10
2022-08-22T07:08:50.849Z,20.24
2022-08-22T07:11:18.586Z,20.29
2022-08-22T07:13:46.313Z,20.42
2022-08-22T07:16:14.044Z,20.57
2022-08-22T07:18:42.008Z,20.68
2022-08-22T07:21:09.880Z,20.78
2022-08-22T07:23:38.135Z,20.85
2022-08-22T07:26:05.817Z,20.90
2022-08-22T07:28:37.150Z,20.95
2022-08-22T07:31:18.736Z,21.07
2022-08-22T07:33:49.991Z,21.21
2022-08-22T07:36:17.818Z,21.36
2022-08-22T07:38:45.753Z,21.51
2022-08-22T07:41:13.452Z,21.61
2022-08-22T07:43:41.120Z,21.68
2022-08-22T07:46:09.072Z,21.83
2022-08-22T07:48:48.641Z,21.99
2022-08-22T07:51:25.145Z,22.19
2022-08-22T07:53:52.808Z,22.36
2022-08-22T07:56:20.530Z,22.50
2022-08-22T07:58:48.446Z,22.63
2022-08-22T08:01:16.459Z,22.79
2022-08-22T08:03:44.242Z,22.91
2022-08-22T08:06:11.952Z,23.07
2022-08-22T08:08:41.101Z,23.27
2022-08-22T08:11:08.835Z,23.52
2022-08-22T08:13:36.582Z,23.74
2022-08-22T08:16:05.106Z,23.93
2022-08-22T08:18:32.831Z,24.11
2022-08-22T08:21:00.615Z,24.31
2022-08-22T08:23:28.501Z,24.47
2022-08-22T08:25:56.163Z,24.68
2022-08-22T08:28:35.294Z,24.87
2022-08-22T08:31:03.334Z,25.04
2022-08-22T08:33:30.976Z,25.13
2022-08-22T08:36:03.253Z,25.17
2022-08-22T08:38:31.735Z,25.15
2022-08-22T08:40:59.473Z,25.18
2022-08-22T08:43:30.873Z,25.21
2022-08-22T08:45:59.450Z,25.21
2022-08-22T08:48:27.154Z,25.25
2022-08-22T08:50:54.850Z,25.30
2022-08-22T08:53:24.405Z,25.39
2022-08-22T08:55:52.422Z,25.48
2022-08-22T08:58:20.102Z,25.57
2022-08-22T09:00:49.044Z,25.67
2022-08-22T09:03:21.176Z,25.77
2022-08-22T09:05:55.095Z,25.87
2022-08-22T09:08:23.051Z,25.99
2022-08-22T09:10:51.536Z,26.10
2022-08-22T09:13:19.231Z,26.21
2022-08-22T09:16:04.546Z,26.30
2022-08-22T09:18:33.479Z,26.41
2022-08-22T09:21:02.683Z,26.53
2022-08-22T09:23:30.875Z,26.65
2022-08-22T09:25:59.873Z,26.78
2022-08-22T09:28:29.480Z,26.90
2022-08-22T09:30:57.229Z,27.02
2022-08-22T09:33:24.923Z,27.16
2022-08-22T09:35:52.610Z,27.27
2022-08-22T09:38:22.307Z,27.41
2022-08-22T09:40:51.521Z,27.55
2022-08-22T09:43:21.309Z,27.77
2022-08-22T09:45:50.836Z,28.10
2022-08-22T09:48:18.522Z,28.50
2022-08-22T09:50:46.686Z,28.91
2022-08-22T09:53:14.697Z,29.25
2022-08-22T09:55:44.401Z,29.63
2022-08-22T09:58:12.143Z,30.05
2022-08-22T10:00:44.260Z,30.56
2022-08-22T10:03:11.972Z,31.14
2022-08-22T10:05:43.799Z,31.65
2022-08-22T10:08:12.942Z,32.15
2022-08-22T10:10:40.614Z,32.58
2022-08-22T10:13:10.499Z,32.97
2022-08-22T10:15:38.830Z,33.10
2022-08-22T10:18:07.501Z,33.37
2022-08-22T10:20:38.215Z,33.74
2022-08-22T10:23:06.249Z,34.00
2022-08-22T10:25:35.622Z,34.25
2022-08-22T10:28:03.382Z,34.59
2022-08-22T10:30:31.354Z,34.91
2022-08-22T10:32:59.274Z,35.13
2022-08-22T10:35:28.204Z,35.47
2022-08-22T10:38:01.811Z,35.78
2022-08-22T10:40:31.381Z,36.05
2022-08-22T10:42:59.374Z,36.25
2022-08-22T10:45:35.811Z,36.47
2022-08-22T10:48:04.900Z,36.73
2022-08-22T10:50:36.812Z,36.86
2022-08-22T10:53:18.627Z,37.21
2022-08-22T10:55:57.355Z,37.32
2022-08-22T10:58:25.363Z,37.44
2022-08-22T11:00:54.405Z,37.65
2022-08-22T11:03:25.006Z,37.77
2022-08-22T11:05:52.759Z,37.88
2022-08-22T11:08:20.810Z,37.65
2022-08-22T11:10:49.243Z,36.31
2022-08-22T11:13:19.784Z,34.81
2022-08-22T11:15:47.499Z,34.28
2022-08-22T11:18:15.822Z,34.46
2022-08-22T11:20:44.112Z,35.24
2022-08-22T11:23:12.325Z,35.48
2022-08-22T11:25:43.697Z,36.15
2022-08-22T11:28:11.432Z,36.53
2022-08-22T11:30:44.479Z,35.70
2022-08-22T11:33:13.776Z,34.45
2022-08-22T11:35:41.498Z,33.34
2022-08-22T11:38:11.123Z,32.46
2022-08-22T11:40:38.872Z,32.03
2022-08-22T11:43:07.356Z,31.57
2022-08-22T11:45:46.223Z,31.17
2022-08-22T11:48:15.036Z,31.29
2022-08-22T11:50:42.772Z,31.36
2022-08-22T11:53:12.138Z,32.50
2022-08-22T11:55:42.420Z,34.05
2022-08-22T11:58:10.476Z,35.31
2022-08-22T12:00:38.276Z,35.90
2022-08-22T12:03:05.914Z,36.63
2022-08-22T12:05:33.756Z,37.27
2022-08-22T12:08:01.701Z,37.97
2022-08-22T12:10:30.335Z,38.39
2022-08-22T12:12:58.306Z,38.82
2022-08-22T12:15:29.148Z,39.23
2022-08-22T12:18:01.456Z,38.82
2022-08-22T12:20:32.080Z,37.64
2022-08-22T12:23:01.355Z,37.26
2022-08-22T12:25:29.267Z,37.72
2022-08-22T12:27:56.939Z,38.26
2022-08-22T12:30:25.246Z,38.57
2022-08-22T12:32:52.945Z,38.50
2022-08-22T12:35:20.682Z,37.91
2022-08-22T12:37:58.117Z,37.77
2022-08-22T12:40:26.361Z,37.34
2022-08-22T12:42:54.973Z,36.75
2022-08-22T12:45:24.411Z,36.27
2022-08-22T12:47:52.285Z,36.07
2022-08-22T12:50:19.994Z,35.82
2022-08-22T12:52:49.657Z,35.20
2022-08-22T12:55:17.438Z,34.54
2022-08-22T12:57:45.468Z,34.02
2022-08-22T13:00:23.103Z,33.61
2022-08-22T13:02:54.669Z,33.19
2022-08-22T13:05:22.651Z,32.84
2022-08-22T13:07:52.427Z,32.58
2022-08-22T13:10:21.176Z,32.30
2022-08-22T13:12:49.119Z,32.02
2022-08-22T13:15:17.342Z,31.78
2022-08-22T13:17:47.304Z,31.56
2022-08-22T13:20:15.071Z,31.36
2022-08-22T13:22:46.363Z,31.16
2022-08-22T13:25:14.033Z,30.99
2022-08-22T13:28:03.387Z,30.89
2022-08-22T13:30:30.135Z,30.77
2022-08-22T13:32:57.784Z,30.70
2022-08-22T13:35:27.126Z,30.63
2022-08-22T13:37:57.687Z,30.54
2022-08-22T13:40:25.730Z,30.41
2022-08-22T13:42:54.244Z,30.25
2022-08-22T13:45:22.054Z,30.12
2022-08-22T13:47:50.593Z,30.05
2022-08-22T13:50:19.314Z,29.96
2022-08-22T13:52:52.573Z,29.86
2022-08-22T13:55:23.122Z,29.73
2022-08-22T13:57:55.571Z,29.56
2022-08-22T14:00:27.454Z,29.37
2022-08-22T14:02:56.626Z,29.16
2022-08-22T14:05:26.544Z,28.96
2022-08-22T14:07:54.266Z,28.83
2022-08-22T14:10:22.681Z,28.75
2022-08-22T14:12:51.287Z,28.74
2022-08-22T14:15:19.029Z,28.83
2022-08-22T14:17:48.914Z,28.98
2022-08-22T14:20:28.524Z,29.16
2022-08-22T14:23:04.022Z,29.35
2022-08-22T14:25:32.387Z,29.47
2022-08-22T14:28:00.978Z,29.58
2022-08-22T14:30:30.642Z,29.66
2022-08-22T14:32:58.417Z,29.79
2022-08-22T14:35:35.007Z,29.91
2022-08-22T14:38:05.491Z,30.06
2022-08-22T14:40:46.774Z,30.18
2022-08-22T14:43:14.468Z,30.21
2022-08-22T14:45:42.437Z,30.26
2022-08-22T14:48:13.928Z,30.35
2022-08-22T14:50:57.462Z,30.54
2022-08-22T14:53:25.537Z,30.58
2022-08-22T14:55:53.386Z,30.59
2022-08-22T14:58:26.464Z,30.56
2022-08-22T15:00:56.018Z,30.44
2022-08-22T15:03:24.065Z,30.24
2022-08-22T15:05:51.810Z,30.00
2022-08-22T15:08:19.829Z,29.75
2022-08-22T15:10:52.088Z,29.52
2022-08-22T15:13:19.767Z,29.33
2022-08-22T15:15:55.829Z,29.15
2022-08-22T15:18:27.613Z,28.95
2022-08-22T15:20:55.726Z,28.80
2022-08-22T15:23:23.466Z,28.67
2022-08-22T15:25:51.228Z,28.59
2022-08-22T15:28:20.254Z,28.52
2022-08-22T15:30:48.675Z,28.63
2022-08-22T15:33:21.834Z,28.68
2022-08-22T15:35:49.774Z,28.71
2022-08-22T15:38:17.446Z,28.76
2022-08-22T15:40:45.628Z,28.84
2022-08-22T15:43:13.751Z,28.91
2022-08-22T15:45:43.965Z,29.14
2022-08-22T15:48:12.678Z,29.69
2022-08-22T15:50:40.311Z,29.88
2022-08-22T15:53:09.689Z,30.48
2022-08-22T15:55:37.408Z,31.50
2022-08-22T15:58:05.947Z,32.39
2022-08-22T16:00:33.724Z,33.40
2022-08-22T16:03:02.020Z,34.31
2022-08-22T16:05:29.857Z,35.28
2022-08-22T16:07:57.473Z,35.72
2022-08-22T16:10:25.497Z,35.49
2022-08-22T16:12:53.186Z,35.03
2022-08-22T16:15:20.891Z,34.28
2022-08-22T16:17:53.312Z,34.19
2022-08-22T16:20:21.591Z,33.65
2022-08-22T16:22:49.240Z,32.86
2022-08-22T16:25:17.067Z,32.16
2022-08-22T16:27:46.397Z,31.51
2022-08-22T16:30:14.468Z,30.96
2022-08-22T16:32:42.476Z,30.49
2022-08-22T16:35:10.114Z,30.04
2022-08-22T16:37:37.771Z,29.64
2022-08-22T16:40:05.988Z,29.32
2022-08-22T16:42:33.753Z,29.03
2022-08-22T16:45:01.536Z,28.78
2022-08-22T16:47:30.288Z,28.55
2022-08-22T16:49:58.006Z,28.36
2022-08-22T16:52:25.770Z,28.18
2022-08-22T16:54:53.733Z,28.02
2022-08-22T16:57:21.785Z,27.89
2022-08-22T16:59:49.508Z,27.76
2022-08-22T17:02:17.194Z,27.67
2022-08-22T17:04:44.842Z,27.57
2022-08-22T17:07:12.603Z,27.51
2022-08-22T17:09:41.266Z,27.49
2022-08-22T17:12:09.007Z,27.48
2022-08-22T17:14:36.865Z,27.50
2022-08-22T17:17:05.294Z,27.52
2022-08-22T17:19:33.353Z,27.53
2022-08-22T17:22:01.109Z,27.56
2022-08-22T17:24:33.771Z,27.56
2022-08-22T17:27:02.166Z,27.57
2022-08-22T17:29:29.918Z,27.55
2022-08-22T17:31:57.706Z,27.54
2022-08-22T17:34:25.463Z,27.50
2022-08-22T17:36:53.949Z,27.46
2022-08-22T17:39:22.074Z,27.42
2022-08-22T17:41:49.868Z,27.38
2022-08-22T17:44:17.604Z,27.34
2022-08-22T17:46:45.333Z,27.29
2022-08-22T17:49:13.262Z,27.22
2022-08-22T17:51:43.218Z,27.16
2022-08-22T17:54:10.906Z,27.07
2022-08-22T17:56:39.033Z,27.00
2022-08-22T17:59:06.959Z,26.91
2022-08-22T18:01:34.804Z,26.82
2022-08-22T18:04:02.562Z,26.72
2022-08-22T18:06:30.251Z,26.65
2022-08-22T18:09:15.398Z,26.57
2022-08-22T18:11:43.204Z,26.45
2022-08-22T18:14:10.961Z,26.34
2022-08-22T18:16:39.005Z,26.25
2022-08-22T18:19:06.702Z,26.15
2022-08-22T18:21:34.560Z,26.06
2022-08-22T18:24:02.215Z,25.98
2022-08-22T18:26:30.271Z,25.90
2022-08-22T18:28:58.400Z,25.81
2022-08-22T18:31:26.478Z,25.74
2022-08-22T18:33:54.094Z,25.65
2022-08-22T18:36:21.847Z,25.56
2022-08-22T18:38:50.033Z,25.46
2022-08-22T18:41:17.774Z,25.37
2022-08-22T18:43:45.737Z,25.27
2022-08-22T18:46:13.973Z,25.17
2022-08-22T18:48:59.478Z,25.09
2022-08-22T18:51:29.806Z,24.99
2022-08-22T18:53:57.506Z,24.90
2022-08-22T18:56:25.443Z,24.83
2022-08-22T18:59:05.388Z,24.76
2022-08-22T19:01:42.144Z,24.68
2022-08-22T19:04:12.744Z,24.59
2022-08-22T19:06:40.535Z,24.52
2022-08-22T19:09:08.559Z,24.46
2022-08-22T19:11:37.252Z,24.38
2022-08-22T19:14:05.769Z,24.32
2022-08-22T19:16:33.382Z,24.24
2022-08-22T19:19:01.127Z,24.17
2022-08-22T19:21:46.310Z,24.11
2022-08-22T19:24:14.414Z,24.04
2022-08-22T19:26:42.061Z,23.96
2022-08-22T19:29:10.892Z,23.86
2022-08-22T19:31:42.036Z,23.76
2022-08-22T19:34:09.781Z,23.67
2022-08-22T19:36:37.494Z,23.62
2022-08-22T19:39:08.841Z,23.57
2022-08-22T19:41:36.991Z,23.54
2022-08-22T19:44:04.691Z,23.51
2022-08-22T19:46:32.430Z,23.50
2022-08-22T19:49:00.170Z,23.49
2022-08-22T19:51:27.811Z,23.46
2022-08-22T19:53:55.587Z,23.44
2022-08-22T19:56:23.285Z,23.43
2022-08-22T19:58:52.415Z,23.42
2022-08-22T20:01:20.164Z,23.42
2022-08-22T20:03:48.071Z,23.40
2022-08-22T20:06:40.719Z,23.41
2022-08-22T20:09:03.810Z,23.40
2022-08-22T20:11:32.640Z,23.41
2022-08-22T20:14:00.648Z,23.41
2022-08-22T20:16:30.878Z,23.41
2022-08-22T20:19:07.260Z,23.42
2022-08-22T20:21:38.971Z,23.41
2022-08-22T20:24:07.425Z,23.38
2022-08-22T20:26:43.519Z,23.35
2022-08-22T20:29:22.822Z,23.33
2022-08-22T20:31:54.347Z,23.30
2022-08-22T20:34:24.424Z,23.28
2022-08-22T20:37:09.622Z,23.27
2022-08-22T20:39:40.571Z,23.24
2022-08-22T20:42:08.268Z,23.23
2022-08-22T20:44:36.844Z,23.20
2022-08-22T20:47:07.795Z,23.18
2022-08-22T20:49:37.562Z,23.14
2022-08-22T20:52:05.609Z,23.12
2022-08-22T20:54:33.237Z,23.10
2022-08-22T20:57:01.752Z,23.08
2022-08-22T20:59:29.847Z,23.06
2022-08-22T21:01:57.618Z,23.02
2022-08-22T21:04:25.251Z,23.01
2022-08-22T21:06:52.945Z,23.00
2022-08-22T21:09:38.539Z,22.98
2022-08-22T21:12:09.334Z,22.94
2022-08-22T21:14:37.794Z,22.92
2022-08-22T21:17:05.856Z,22.90
2022-08-22T21:19:33.498Z,22.88
2022-08-22T21:22:01.273Z,22.86
2022-08-22T21:24:28.892Z,22.87
2022-08-22T21:26:56.580Z,22.86
2022-08-22T21:29:26.775Z,22.87
2022-08-22T21:32:04.942Z,22.87
2022-08-22T21:34:32.724Z,22.84
2022-08-22T21:37:00.431Z,22.82
2022-08-22T21:39:28.357Z,22.82
2022-08-22T21:41:56.067Z,22.81
2022-08-22T21:44:23.733Z,22.78
2022-08-22T21:46:52.482Z,22.75
2022-08-22T21:49:20.534Z,22.74
2022-08-22T21:51:48.324Z,22.72
2022-08-22T21:54:19.008Z,22.69
2022-08-22T21:56:46.879Z,22.67
2022-08-22T21:59:14.942Z,22.64
2022-08-22T22:01:43.208Z,22.63
2022-08-22T22:04:13.839Z,22.62
2022-08-22T22:06:41.573Z,22.62
2022-08-22T22:09:13.289Z,22.62
2022-08-22T22:11:42.932Z,22.62
2022-08-22T22:14:10.808Z,22.66
2022-08-22T22:16:38.655Z,22.65
2022-08-22T22:19:06.762Z,22.67
2022-08-22T22:21:34.603Z,22.66
2022-08-22T22:24:02.363Z,22.64
2022-08-22T22:26:30.233Z,22.61
2022-08-22T22:28:59.322Z,22.58
2022-08-22T22:31:27.092Z,22.55
2022-08-22T22:33:54.938Z,22.52
2022-08-22T22:36:22.785Z,22.49
2022-08-22T22:38:51.682Z,22.45
2022-08-22T22:41:20.560Z,22.43
2022-08-22T22:43:48.560Z,22.39
2022-08-22T22:46:16.274Z,22.36
2022-08-22T22:48:44.638Z,22.35
2022-08-22T22:51:12.491Z,22.37
2022-08-22T22:53:43.079Z,22.34
2022-08-22T22:56:11.805Z,22.32
2022-08-22T22:58:39.727Z,22.30
2022-08-22T23:01:07.579Z,22.26
2022-08-22T23:03:35.496Z,22.24
2022-08-22T23:06:03.301Z,22.23
2022-08-22T23:08:31.058Z,22.22
2022-08-22T23:10:59.125Z,22.19
2022-08-22T23:13:26.845Z,22.16
2022-08-22T23:15:54.544Z,22.15
2022-08-22T23:18:26.748Z,22.11
2022-08-22T23:20:58.596Z,22.07
2022-08-22T23:23:26.425Z,22.02
2022-08-22T23:25:54.177Z,21.97
2022-08-22T23:28:22.275Z,21.94
2022-08-22T23:30:49.979Z,21.89
2022-08-22T23:33:17.803Z,21.83
2022-08-22T23:35:45.577Z,21.76
2022-08-22T23:38:13.483Z,21.68
2022-08-22T23:40:41.462Z,21.61
2022-08-22T23:43:09.272Z,21.56
2022-08-22T23:45:37.090Z,21.50
2022-08-22T23:48:04.844Z,21.41
2022-08-22T23:50:32.922Z,21.33
2022-08-22T23:53:00.828Z,21.24
2022-08-22T23:55:28.585Z,21.16
2022-08-22T23:57:58.032Z,21.10
